createdAt,value
2022-10-18T00:00:18.011Z,9.20
2022-10-18T00:03:20.839Z,9.38
2022-10-18T00:06:23.396Z,12.80
2022-10-18T00:09:27.524Z,9.13
2022-10-18T00:12:29.922Z,9.70
2022-10-18T00:15:32.380Z,9.77
2022-10-18T00:18:34.762Z,10.13
2022-10-18T00:21:37.241Z,10.37
2022-10-18T00:24:39.687Z,9.63
2022-10-18T00:27:42.231Z,9.05
2022-10-18T00:30:44.634Z,9.02
2022-10-18T00:33:51.711Z,9.75
2022-10-18T00:36:55.094Z,9.87
2022-10-18T00:39:57.451Z,9.13
2022-10-18T00:42:59.877Z,10.60
2022-10-18T00:46:02.208Z,10.25
2022-10-18T00:49:17.184Z,9.48
2022-10-18T00:52:26.496Z,9.40
2022-10-18T00:55:31.678Z,9.53
2022-10-18T00:58:34.923Z,9.88
2022-10-18T01:01:37.579Z,10.18
2022-10-18T01:04:39.956Z,9.95
2022-10-18T01:07:48.506Z,10.67
2022-10-18T01:11:12.686Z,10.50
2022-10-18T01:14:34.288Z,10.55
2022-10-18T01:18:09.382Z,10.55
2022-10-18T01:21:47.258Z,10.18
2022-10-18T01:25:20.106Z,10.93
2022-10-18T01:28:44.093Z,10.70
2022-10-18T01:31:50.418Z,11.52
2022-10-18T01:34:58.101Z,10.52
2022-10-18T01:38:05.107Z,10.68
2022-10-18T01:41:13.226Z,10.10
2022-10-18T01:44:23.455Z,10.27
2022-10-18T01:47:28.187Z,9.65
2022-10-18T01:50:33.075Z,9.63
2022-10-18T01:53:36.189Z,9.68
2022-10-18T01:57:00.300Z,10.37
2022-10-18T02:00:05.413Z,9.97
2022-10-18T02:03:17.828Z,9.68
2022-10-18T02:06:23.030Z,9.82
2022-10-18T02:09:39.552Z,9.93
2022-10-18T02:12:44.470Z,9.50
2022-10-18T02:15:49.993Z,10.23
2022-10-18T02:18:58.930Z,10.48
2022-10-18T02:22:02.072Z,9.90
2022-10-18T02:25:10.271Z,9.38
2022-10-18T02:28:12.819Z,10.03
2022-10-18T02:31:27.360Z,9.63
2022-10-18T02:34:35.833Z,10.13
2022-10-18T02:37:40.074Z,10.23
2022-10-18T02:40:42.453Z,9.90
2022-10-18T02:43:44.885Z,10.07
2022-10-18T02:46:47.665Z,10.23
2022-10-18T02:49:50.020Z,13.35
2022-10-18T02:52:52.479Z,14.02
2022-10-18T02:55:54.840Z,15.95
2022-10-18T02:58:57.406Z,12.80
2022-10-18T03:01:59.721Z,12.20
2022-10-18T03:05:02.085Z,11.93
2022-10-18T03:08:04.782Z,11.30
2022-10-18T03:11:07.245Z,10.50
2022-10-18T03:14:09.621Z,10.50
2022-10-18T03:17:12.086Z,10.60
2022-10-18T03:20:14.605Z,10.40
2022-10-18T03:23:17.090Z,11.35
2022-10-18T03:26:21.495Z,10.73
2022-10-18T03:29:23.874Z,10.73
2022-10-18T03:32:26.458Z,10.57
2022-10-18T03:35:28.847Z,11.25
2022-10-18T03:38:31.618Z,13.13
2022-10-18T03:41:34.003Z,13.73
2022-10-18T03:44:36.382Z,12.40
2022-10-18T03:47:38.817Z,10.97
2022-10-18T03:50:42.875Z,11.20
2022-10-18T03:53:45.483Z,11.10
2022-10-18T03:56:48.127Z,10.25
2022-10-18T03:59:50.708Z,10.63
2022-10-18T04:02:55.826Z,11.80
2022-10-18T04:06:00.653Z,11.27
2022-10-18T04:09:06.510Z,10.98
2022-10-18T04:12:11.874Z,10.75
2022-10-18T04:15:14.377Z,11.30
2022-10-18T04:18:16.768Z,11.70
2022-10-18T04:21:19.313Z,11.27
2022-10-18T04:24:21.856Z,11.73
2022-10-18T04:27:25.545Z,10.80
2022-10-18T04:30:28.209Z,12.37
2022-10-18T04:33:30.596Z,11.25
2022-10-18T04:36:33.013Z,10.38
2022-10-18T04:39:35.474Z,11.13
2022-10-18T04:42:37.897Z,11.32
2022-10-18T04:45:40.212Z,11.80
2022-10-18T04:48:42.650Z,11.45
2022-10-18T04:51:45.143Z,11.75
2022-10-18T04:54:47.518Z,11.55
2022-10-18T04:57:49.929Z,12.80
2022-10-18T05:00:52.632Z,13.40
2022-10-18T05:03:55.200Z,14.77
2022-10-18T05:06:57.932Z,14.93
2022-10-18T05:10:03.922Z,15.73
2022-10-18T05:13:07.262Z,17.13
2022-10-18T05:16:17.852Z,19.20
2022-10-18T05:19:20.422Z,18.67
2022-10-18T05:22:22.975Z,18.05
2022-10-18T05:25:25.420Z,15.85
2022-10-18T05:28:39.707Z,14.50
2022-10-18T05:31:43.115Z,13.82
2022-10-18T05:34:45.583Z,13.68
2022-10-18T05:37:48.702Z,13.57
2022-10-18T05:40:53.248Z,15.68
2022-10-18T05:43:55.761Z,15.00
2022-10-18T05:46:58.494Z,15.80
2022-10-18T05:50:00.974Z,16.33
2022-10-18T05:53:12.167Z,16.20
2022-10-18T05:56:20.952Z,15.90
2022-10-18T05:59:23.495Z,16.27
2022-10-18T06:02:26.014Z,18.27
2022-10-18T06:05:28.492Z,19.10
2022-10-18T06:08:31.410Z,22.23
2022-10-18T06:11:34.031Z,24.13
2022-10-18T06:14:37.631Z,28.30
2022-10-18T06:17:40.073Z,41.05
2022-10-18T06:20:42.713Z,56.47
2022-10-18T06:23:52.266Z,49.00
2022-10-18T06:26:54.824Z,39.27
2022-10-18T06:29:57.488Z,34.30
2022-10-18T06:33:01.070Z,22.08
2022-10-18T06:36:06.118Z,19.63
2022-10-18T06:39:08.607Z,17.40
2022-10-18T06:42:11.036Z,18.17
2022-10-18T06:45:15.840Z,15.67
2022-10-18T06:51:27.217Z,14.38
2022-10-18T06:54:29.756Z,14.90
2022-10-18T06:57:32.120Z,15.77
2022-10-18T07:00:35.911Z,15.77
2022-10-18T07:03:38.530Z,16.27
2022-10-18T07:06:41.052Z,16.33
2022-10-18T07:09:46.027Z,15.77
2022-10-18T07:12:48.471Z,15.20
2022-10-18T07:16:05.992Z,15.70
2022-10-18T07:19:08.527Z,15.68
2022-10-18T07:22:11.030Z,15.82
2022-10-18T07:25:13.668Z,15.48
2022-10-18T07:28:16.129Z,14.63
2022-10-18T07:31:18.757Z,15.77
2022-10-18T07:34:21.258Z,14.82
2022-10-18T07:37:26.660Z,15.98
2022-10-18T07:40:31.891Z,15.80
2022-10-18T07:43:35.581Z,15.83
2022-10-18T07:46:37.969Z,14.83
2022-10-18T07:49:41.092Z,14.35
2022-10-18T07:52:43.553Z,15.10
2022-10-18T07:55:46.243Z,14.10
2022-10-18T07:58:53.691Z,15.00
2022-10-18T08:01:56.284Z,14.03
2022-10-18T08:04:58.938Z,14.40
2022-10-18T08:08:04.305Z,13.88
2022-10-18T08:11:24.469Z,13.32
2022-10-18T08:14:26.959Z,13.93
2022-10-18T08:17:29.419Z,13.27
2022-10-18T08:20:33.333Z,14.50
2022-10-18T08:23:36.944Z,12.95
2022-10-18T08:26:39.393Z,13.55
2022-10-18T08:29:42.034Z,13.87
2022-10-18T08:32:44.452Z,14.67
2022-10-18T08:36:01.288Z,20.85
2022-10-18T08:39:03.954Z,13.57
2022-10-18T08:42:27.986Z,13.10
2022-10-18T08:45:41.900Z,12.47
2022-10-18T08:48:52.169Z,13.17
2022-10-18T08:51:56.047Z,13.55
2022-10-18T08:55:29.311Z,12.82
2022-10-18T08:58:33.363Z,11.93
2022-10-18T09:01:41.954Z,11.40
2022-10-18T09:05:06.803Z,11.57
2022-10-18T09:08:30.541Z,11.38
2022-10-18T09:11:41.809Z,11.45
2022-10-18T09:15:02.581Z,11.38
2022-10-18T09:18:20.263Z,11.77
2022-10-18T09:21:51.845Z,11.60
2022-10-18T09:25:18.132Z,11.52
2022-10-18T09:28:46.282Z,12.00
2022-10-18T09:32:03.720Z,11.20
2022-10-18T09:35:14.914Z,10.80
2022-10-18T09:38:21.886Z,10.83
2022-10-18T09:41:24.306Z,11.25
2022-10-18T09:44:35.985Z,11.40
2022-10-18T09:47:45.448Z,10.90
2022-10-18T09:50:57.105Z,10.57
2022-10-18T09:54:12.986Z,10.33
2022-10-18T09:57:21.778Z,10.07
2022-10-18T10:00:38.785Z,10.00
2022-10-18T10:03:42.357Z,9.52
2022-10-18T10:06:52.913Z,9.63
2022-10-18T10:09:59.934Z,8.27
2022-10-18T10:13:17.836Z,8.68
2022-10-18T10:16:20.316Z,9.43
2022-10-18T10:19:53.657Z,9.45
2022-10-18T10:23:07.489Z,8.93
2022-10-18T10:26:22.773Z,9.70
2022-10-18T10:29:49.073Z,8.23
2022-10-18T10:32:53.093Z,8.13
2022-10-18T10:36:00.889Z,8.13
2022-10-18T10:39:12.515Z,8.23
2022-10-18T10:42:15.020Z,7.80
2022-10-18T10:45:17.728Z,7.78
2022-10-18T10:48:21.158Z,7.20
2022-10-18T10:51:38.738Z,7.53
2022-10-18T10:54:50.407Z,7.37
2022-10-18T10:57:56.368Z,7.17
2022-10-18T11:01:16.530Z,7.35
2022-10-18T11:04:25.673Z,7.10
2022-10-18T11:07:36.231Z,7.32
2022-10-18T11:11:23.293Z,6.90
2022-10-18T11:14:38.788Z,7.37
2022-10-18T11:18:10.814Z,7.80
2022-10-18T11:21:23.151Z,8.40
2022-10-18T11:24:25.839Z,8.40
2022-10-18T11:27:53.889Z,7.90
2022-10-18T11:31:17.123Z,8.87
2022-10-18T11:34:57.010Z,8.50
2022-10-18T11:38:18.090Z,7.90
2022-10-18T11:41:39.956Z,8.15
2022-10-18T11:44:57.767Z,7.53
2022-10-18T11:48:18.807Z,7.37
2022-10-18T11:52:03.260Z,7.47
2022-10-18T11:55:18.926Z,8.25
2022-10-18T11:58:50.758Z,7.50
2022-10-18T12:02:15.311Z,7.23
2022-10-18T12:05:23.743Z,7.67
2022-10-18T12:08:37.113Z,7.30
2022-10-18T12:11:58.539Z,7.60
2022-10-18T12:15:14.407Z,8.07
2022-10-18T12:18:20.343Z,7.97
2022-10-18T12:21:25.887Z,8.40
2022-10-18T12:24:31.931Z,8.75
2022-10-18T12:27:44.026Z,9.43
2022-10-18T12:31:18.851Z,11.52
2022-10-18T12:34:21.368Z,9.13
2022-10-18T12:37:36.134Z,9.37
2022-10-18T12:40:46.062Z,10.50
2022-10-18T12:43:54.786Z,11.05
2022-10-18T12:47:02.776Z,9.10
2022-10-18T12:50:23.045Z,10.03
2022-10-18T12:53:27.953Z,9.90
2022-10-18T12:56:32.874Z,9.18
2022-10-18T12:59:35.242Z,10.07
2022-10-18T13:02:37.908Z,9.95
2022-10-18T13:06:04.177Z,9.77
2022-10-18T13:09:21.005Z,8.97
2022-10-18T13:12:23.422Z,9.63
2022-10-18T13:15:35.449Z,9.05
2022-10-18T13:18:47.709Z,9.57
2022-10-18T13:21:59.589Z,8.87
2022-10-18T13:25:17.269Z,8.40
2022-10-18T13:28:19.683Z,8.68
2022-10-18T13:31:45.114Z,8.52
2022-10-18T13:34:47.742Z,8.18
2022-10-18T13:38:00.007Z,7.93
2022-10-18T13:41:08.732Z,8.20
2022-10-18T13:44:33.242Z,7.28
2022-10-18T13:47:38.077Z,7.63
2022-10-18T13:50:43.064Z,7.18
2022-10-18T13:54:11.196Z,7.43
2022-10-18T13:57:41.875Z,7.23
2022-10-18T14:00:50.507Z,7.70
2022-10-18T14:04:11.160Z,7.32
2022-10-18T14:07:19.165Z,6.85
2022-10-18T14:10:57.407Z,6.73
2022-10-18T14:14:13.515Z,7.07
2022-10-18T14:17:24.981Z,6.35
2022-10-18T14:20:49.517Z,6.47
2022-10-18T14:24:00.391Z,5.97
2022-10-18T14:27:13.212Z,5.77
2022-10-18T14:30:20.208Z,6.30
2022-10-18T14:33:43.713Z,5.90
2022-10-18T14:36:48.458Z,5.70
2022-10-18T14:39:51.069Z,6.05
2022-10-18T14:42:53.486Z,5.50
2022-10-18T14:46:09.410Z,5.40
2022-10-18T14:49:13.171Z,5.50
2022-10-18T14:52:18.529Z,5.55
2022-10-18T14:55:26.941Z,5.93
2022-10-18T14:58:30.217Z,6.20
2022-10-18T15:01:33.123Z,5.53
2022-10-18T15:04:35.696Z,5.30
2022-10-18T15:07:38.410Z,5.47
2022-10-18T15:10:41.654Z,5.82
2022-10-18T15:13:53.482Z,5.40
2022-10-18T15:17:03.447Z,6.07
2022-10-18T15:20:27.282Z,5.75
2022-10-18T15:23:31.331Z,5.70
2022-10-18T15:26:33.798Z,6.10
2022-10-18T15:29:37.752Z,5.67
2022-10-18T15:32:48.580Z,5.97
2022-10-18T15:35:53.065Z,5.97
2022-10-18T15:39:18.394Z,5.68
2022-10-18T15:42:38.798Z,6.13
2022-10-18T15:49:18.124Z,6.00
2022-10-18T15:52:39.310Z,6.40
2022-10-18T15:55:46.746Z,6.43
2022-10-18T15:58:51.281Z,6.70
2022-10-18T16:01:54.337Z,6.80
2022-10-18T16:05:01.805Z,6.50
2022-10-18T16:08:04.356Z,6.40
2022-10-18T16:11:08.204Z,6.60
2022-10-18T16:14:10.827Z,6.53
2022-10-18T16:17:16.921Z,7.17
2022-10-18T16:20:22.278Z,7.63
2022-10-18T16:23:28.700Z,10.20
2022-10-18T16:26:32.069Z,15.65
2022-10-18T16:29:35.088Z,17.17
2022-10-18T16:32:37.486Z,19.00
2022-10-18T16:35:39.853Z,23.50
2022-10-18T16:38:42.980Z,22.90
2022-10-18T16:41:46.516Z,25.75
2022-10-18T16:44:49.116Z,27.00
2022-10-18T16:47:51.543Z,21.17
2022-10-18T16:50:55.946Z,18.70
2022-10-18T16:53:58.349Z,16.83
2022-10-18T16:57:00.717Z,16.38
2022-10-18T17:00:04.268Z,16.20
2022-10-18T17:03:09.495Z,15.97
2022-10-18T17:06:21.026Z,14.83
2022-10-18T17:09:23.351Z,13.85
2022-10-18T17:12:25.816Z,13.93
2022-10-18T17:15:31.573Z,14.60
2022-10-18T17:18:37.214Z,13.83
2022-10-18T17:21:39.790Z,14.43
2022-10-18T17:24:42.157Z,16.25
2022-10-18T17:27:45.599Z,16.88
2022-10-18T17:30:54.446Z,16.00
2022-10-18T17:33:58.628Z,15.87
2022-10-18T17:37:01.180Z,15.43
2022-10-18T17:40:06.743Z,16.77
2022-10-18T17:43:10.325Z,16.25
2022-10-18T17:46:14.221Z,16.95
2022-10-18T17:49:16.980Z,19.03
2022-10-18T17:52:19.351Z,24.63
2022-10-18T17:55:21.741Z,20.48
2022-10-18T17:58:24.227Z,24.02
2022-10-18T18:01:26.823Z,23.30
2022-10-18T18:04:29.396Z,19.90
2022-10-18T18:07:31.880Z,16.13
2022-10-18T18:10:35.361Z,15.23
2022-10-18T18:13:37.910Z,14.27
2022-10-18T18:16:43.134Z,17.13
2022-10-18T18:19:45.631Z,15.83
2022-10-18T18:22:48.048Z,16.03
2022-10-18T18:25:57.490Z,17.63
2022-10-18T18:32:03.652Z,18.83
2022-10-18T18:35:06.407Z,19.73
2022-10-18T18:38:09.161Z,18.23
2022-10-18T18:41:17.580Z,19.05
2022-10-18T18:44:22.469Z,19.67
2022-10-18T18:47:24.832Z,21.58
2022-10-18T18:50:28.249Z,22.47
2022-10-18T18:53:31.180Z,22.87
2022-10-18T18:56:34.104Z,21.83
2022-10-18T18:59:36.753Z,17.58
2022-10-18T19:02:39.172Z,15.25
2022-10-18T19:05:41.575Z,21.37
2022-10-18T19:08:45.022Z,32.70
2022-10-18T19:11:49.752Z,24.02
2022-10-18T19:14:52.072Z,27.55
2022-10-18T19:17:56.246Z,25.65
2022-10-18T19:20:58.643Z,27.77
2022-10-18T19:24:01.882Z,26.93
2022-10-18T19:27:12.299Z,26.63
2022-10-18T19:30:14.874Z,24.98
2022-10-18T19:33:35.510Z,27.27
2022-10-18T19:36:47.161Z,27.00
2022-10-18T19:39:49.736Z,27.53
2022-10-18T19:42:52.227Z,28.88
2022-10-18T19:45:54.703Z,25.35
2022-10-18T19:48:57.351Z,28.67
2022-10-18T19:51:59.828Z,28.73
2022-10-18T19:55:02.170Z,30.07
2022-10-18T19:58:04.623Z,30.65
2022-10-18T20:01:07.090Z,31.50
2022-10-18T20:04:10.555Z,29.05
2022-10-18T20:07:12.951Z,31.57
2022-10-18T20:10:17.011Z,31.03
2022-10-18T20:13:19.884Z,29.50
2022-10-18T20:16:28.088Z,31.45
2022-10-18T20:19:31.552Z,31.58
2022-10-18T20:22:34.249Z,30.73
2022-10-18T20:25:36.814Z,30.27
2022-10-18T20:28:39.941Z,27.38
2022-10-18T20:31:42.372Z,23.83
2022-10-18T20:34:44.725Z,21.67
2022-10-18T20:37:47.420Z,20.80
2022-10-18T20:40:52.285Z,20.03
2022-10-18T20:43:57.072Z,19.75
2022-10-18T20:46:59.561Z,19.50
2022-10-18T20:50:01.953Z,20.90
2022-10-18T20:53:04.263Z,18.93
2022-10-18T20:56:09.688Z,19.57
2022-10-18T20:59:12.252Z,18.67
2022-10-18T21:02:14.631Z,18.17
2022-10-18T21:05:18.335Z,18.15
2022-10-18T21:08:20.708Z,17.80
2022-10-18T21:11:24.017Z,16.20
2022-10-18T21:14:29.150Z,15.88
2022-10-18T21:17:31.619Z,16.33
2022-10-18T21:20:41.440Z,14.48
2022-10-18T21:23:44.618Z,11.60
2022-10-18T21:26:47.936Z,11.60
2022-10-18T21:29:50.277Z,12.85
2022-10-18T21:32:52.715Z,11.32
2022-10-18T21:35:55.039Z,12.48
2022-10-18T21:38:57.588Z,13.73
2022-10-18T21:41:59.931Z,15.90
2022-10-18T21:45:02.269Z,15.90
2022-10-18T21:48:04.828Z,16.27
2022-10-18T21:51:08.536Z,14.48
2022-10-18T21:54:13.635Z,14.23
2022-10-18T21:57:15.990Z,15.10
2022-10-18T22:00:19.327Z,13.30
2022-10-18T22:03:23.297Z,13.80
2022-10-18T22:06:29.176Z,12.80
2022-10-18T22:09:31.802Z,13.30
2022-10-18T22:12:34.235Z,12.93
2022-10-18T22:18:46.042Z,11.52
2022-10-18T22:21:48.633Z,10.55
2022-10-18T22:24:50.946Z,10.87
2022-10-18T22:27:53.297Z,10.83
2022-10-18T22:30:55.602Z,10.98
2022-10-18T22:34:00.565Z,10.32
2022-10-18T22:37:02.997Z,10.95
2022-10-18T22:40:05.939Z,11.07
2022-10-18T22:43:08.341Z,10.80
2022-10-18T22:46:12.658Z,10.35
2022-10-18T22:49:15.216Z,11.23
2022-10-18T22:52:17.554Z,10.77
2022-10-18T22:55:20.004Z,10.60
2022-10-18T22:58:22.778Z,10.07
2022-10-18T23:01:25.426Z,10.65
2022-10-18T23:04:27.872Z,10.85
2022-10-18T23:07:30.257Z,10.20
2022-10-18T23:10:38.418Z,10.47
2022-10-18T23:13:40.794Z,10.80
2022-10-18T23:16:43.330Z,11.20
2022-10-18T23:19:46.387Z,10.88
2022-10-18T23:22:48.841Z,11.50
2022-10-18T23:25:54.186Z,11.77
2022-10-18T23:28:57.316Z,11.63
2022-10-18T23:31:59.847Z,11.95
2022-10-18T23:35:02.188Z,11.68
2022-10-18T23:38:04.543Z,11.80
2022-10-18T23:41:10.262Z,12.50
2022-10-18T23:44:12.723Z,11.53
2022-10-18T23:47:15.714Z,11.02
2022-10-18T23:50:20.536Z,11.02
2022-10-18T23:53:23.378Z,10.73
2022-10-18T23:56:25.842Z,11.87
2022-10-18T23:59:28.246Z,10.17
